Terminal Aerodrome Forecast
Issued by NWS

Home | Current Version | Previous Version | Text Only | Print | Product List | Glossary On
Versions: 1 2 3 4 5 6 7 8 9 10 11 12 13 14 15 16 17 18 19 20 21
390
FTUS46 KMFR 201746
TAFLMT
TAF
KLMT 201746Z 2018/2118 VRB03KT P6SM BKN100
     FM210700 18005KT P6SM -SHSN BKN050 OVC100
     FM211600 29007KT P6SM VCSH SCT050 BKN120=

USA.gov is the U.S. government's official web portal to all federal, state and local government web resources and services.